Time;durP1;ratioP1;P1;durP2;ratioP2;P2;SDS_P1;SDS_P2;PMS_P1;PMS_P2;Temp;Humidity;BMP_temperature;BMP_pressure;BME280_temperature;BME280_humidity;BME280_pressure;Samples;Min_cycle;Max_cycle;Signal;HPM_P1;HPM_P2
2024/04/27 00:02:25;;;;;;;36.55;21.17;;;4.40;99.90;;;;;;6477188;22;19997;-81
2024/04/27 00:04:51;;;;;;;32.70;19.77;;;4.30;99.90;;;;;;6433704;22;19998;-82
2024/04/27 00:07:16;;;;;;;25.38;15.38;;;4.20;99.90;;;;;;6477712;22;20041;-82
2024/04/27 00:09:42;;;;;;;23.33;13.20;;;4.20;99.90;;;;;;6433326;22;20009;-82
2024/04/27 00:12:08;;;;;;;26.98;17.05;;;4.30;99.90;;;;;;6476881;22;20428;-82
2024/04/27 00:14:34;;;;;;;24.30;16.83;;;4.20;99.90;;;;;;6477285;22;20032;-82
2024/04/27 00:16:59;;;;;;;31.45;18.48;;;4.20;99.90;;;;;;6433595;22;20014;-82
2024/04/27 00:19:25;;;;;;;22.65;14.13;;;4.10;99.90;;;;;;6477633;22;20068;-82
2024/04/27 00:21:51;;;;;;;23.58;15.63;;;4.10;99.90;;;;;;6433181;22;20463;-82
2024/04/27 00:24:16;;;;;;;23.38;15.25;;;4.10;99.90;;;;;;6477154;22;20010;-82
2024/04/27 00:26:42;;;;;;;12.15;8.43;;;4.10;99.90;;;;;;6477293;22;20018;-82
2024/04/27 00:29:07;;;;;;;10.90;7.82;;;4.10;99.90;;;;;;6433420;22;20440;-80
2024/04/27 00:31:39;;;;;;;12.40;8.35;;;4.10;99.90;;;;;;6477611;22;20076;-79
2024/04/27 00:34:05;;;;;;;15.83;10.77;;;4.10;99.90;;;;;;6475842;22;20033;-79
2024/04/27 00:36:31;;;;;;;23.83;13.02;;;4.10;99.90;;;;;;6431436;22;20597;-79
2024/04/27 00:38:56;;;;;;;25.02;14.93;;;4.20;99.90;;;;;;6475286;22;20022;-79
2024/04/27 00:41:22;;;;;;;29.92;17.13;;;4.20;99.90;;;;;;6475403;22;20076;-79
2024/04/27 00:43:47;;;;;;;24.88;15.23;;;4.20;99.90;;;;;;6476062;22;20306;-79
2024/04/27 00:46:13;;;;;;;25.55;15.02;;;4.20;99.90;;;;;;6475525;22;20009;-80
2024/04/27 00:48:39;;;;;;;29.08;16.45;;;4.20;99.90;;;;;;6475242;22;20005;-80
2024/04/27 00:51:07;;;;;;;34.90;21.27;;;4.20;99.90;;;;;;6431194;22;20025;-79
2024/04/27 00:53:33;;;;;;;35.15;21.88;;;4.20;99.90;;;;;;6430888;22;20010;-79
2024/04/27 00:56:02;;;;;;;36.10;20.60;;;4.20;99.90;;;;;;6431839;22;20361;-80
2024/04/27 00:58:30;;;;;;;39.47;22.00;;;4.20;99.90;;;;;;6475153;22;20006;-79
2024/04/27 01:00:56;;;;;;;35.20;20.13;;;4.10;99.90;;;;;;6475200;22;20006;-80
2024/04/27 01:03:22;;;;;;;42.45;19.55;;;4.10;99.90;;;;;;6474917;22;20006;-81
2024/04/27 01:05:49;;;;;;;37.47;21.05;;;4.10;99.90;;;;;;6431048;22;20005;-80
2024/04/27 01:08:14;;;;;;;33.55;19.48;;;4.10;99.90;;;;;;6431260;22;20296;-80
2024/04/27 01:10:40;;;;;;;39.03;21.33;;;4.00;99.90;;;;;;6430379;22;20005;-81
2024/04/27 01:13:06;;;;;;;38.40;20.77;;;4.00;99.90;;;;;;6474781;22;20895;-80
2024/04/27 01:15:39;;;;;;;36.53;20.75;;;4.10;99.90;;;;;;6475155;22;20444;-78
2024/04/27 01:18:05;;;;;;;40.67;22.77;;;4.10;99.90;;;;;;6475077;22;20013;-78
2024/04/27 01:20:30;;;;;;;43.60;27.13;;;4.10;99.90;;;;;;6430739;22;19994;-79
2024/04/27 01:22:56;;;;;;;39.83;24.10;;;4.10;99.90;;;;;;6475869;22;19998;-79
2024/04/27 01:25:22;;;;;;;51.40;30.17;;;4.10;99.90;;;;;;6430048;22;20409;-81
2024/04/27 01:27:47;;;;;;;51.83;28.40;;;4.10;99.90;;;;;;6475295;22;20081;-81
2024/04/27 01:30:13;;;;;;;52.08;27.63;;;4.20;99.90;;;;;;6474942;22;20009;-81
2024/04/27 01:32:39;;;;;;;27.35;16.02;;;4.20;99.90;;;;;;6430682;22;20013;-81
2024/04/27 01:35:05;;;;;;;37.60;21.38;;;4.30;99.90;;;;;;6475588;22;19997;-81
2024/04/27 01:37:32;;;;;;;45.85;26.60;;;4.40;99.90;;;;;;6430235;22;20010;-82
2024/04/27 01:39:58;;;;;;;55.53;31.05;;;4.40;99.90;;;;;;6474953;22;20009;-81
2024/04/27 01:42:23;;;;;;;51.22;27.08;;;4.50;99.90;;;;;;6430517;22;20002;-81
2024/04/27 01:44:49;;;;;;;46.05;24.58;;;4.40;99.90;;;;;;6430443;22;20002;-81
2024/04/27 01:47:15;;;;;;;43.33;24.75;;;4.40;99.90;;;;;;6474816;22;20012;-81
2024/04/27 01:49:40;;;;;;;39.13;22.83;;;4.40;99.90;;;;;;6430845;22;20420;-81
2024/04/27 01:52:06;;;;;;;40.50;22.85;;;4.40;99.90;;;;;;6474578;22;20002;-81
2024/04/27 01:54:32;;;;;;;44.20;22.55;;;4.40;99.90;;;;;;6474680;22;20006;-81
2024/04/27 01:57:01;;;;;;;40.40;23.30;;;4.40;99.90;;;;;;6430097;22;20017;-81
2024/04/27 01:59:27;;;;;;;32.25;19.88;;;4.40;99.90;;;;;;6430157;22;19998;-81
2024/04/27 02:01:52;;;;;;;39.30;22.67;;;4.40;99.90;;;;;;6475370;22;20008;-81
2024/04/27 02:04:18;;;;;;;40.03;22.38;;;4.40;99.90;;;;;;6474887;22;20016;-81
2024/04/27 02:06:45;;;;;;;39.38;20.98;;;4.40;99.90;;;;;;6473975;22;20013;-81
2024/04/27 02:09:11;;;;;;;38.58;20.98;;;4.40;99.90;;;;;;6474381;22;20005;-82
2024/04/27 02:11:39;;;;;;;31.70;17.85;;;4.40;99.90;;;;;;6474336;22;20002;-79
2024/04/27 02:14:06;;;;;;;27.70;15.60;;;4.40;99.90;;;;;;6430997;22;20076;-80
2024/04/27 02:19:15;;;;;;;26.58;14.57;;;4.40;99.90;;;;;;6473210;22;20443;-80
2024/04/27 02:21:42;;;;;;;25.15;14.75;;;4.40;99.90;;;;;;6430208;22;20005;-79
2024/04/27 02:24:12;;;;;;;27.15;14.90;;;4.30;99.90;;;;;;6473821;22;20010;-80
2024/04/27 02:26:38;;;;;;;30.08;17.20;;;4.30;99.90;;;;;;6429038;22;20708;-79
2024/04/27 02:29:05;;;;;;;28.85;16.92;;;4.20;99.90;;;;;;6475152;22;20012;-80
2024/04/27 02:31:31;;;;;;;29.33;17.15;;;4.20;99.90;;;;;;6473501;22;20010;-79
2024/04/27 02:33:56;;;;;;;31.67;16.45;;;4.10;99.90;;;;;;6473894;22;20002;-80
2024/04/27 02:36:22;;;;;;;28.00;16.27;;;4.00;99.90;;;;;;6428253;22;20017;-79
2024/04/27 02:38:48;;;;;;;27.30;17.02;;;3.90;99.90;;;;;;6472572;22;20009;-79
2024/04/27 02:41:14;;;;;;;30.42;17.48;;;3.90;99.90;;;;;;6474745;22;19997;-80
2024/04/27 02:43:40;;;;;;;27.90;16.75;;;3.90;99.90;;;;;;6429823;22;20491;-80
2024/04/27 02:46:06;;;;;;;25.50;15.40;;;3.90;99.90;;;;;;6472346;22;20020;-79
2024/04/27 02:48:32;;;;;;;27.52;14.82;;;3.90;99.90;;;;;;6474225;22;20006;-79
2024/04/27 02:50:58;;;;;;;22.80;13.63;;;3.90;99.90;;;;;;6429129;22;20388;-79
2024/04/27 02:53:24;;;;;;;24.02;14.18;;;3.90;99.90;;;;;;6474223;22;19997;-79
2024/04/27 02:55:50;;;;;;;24.63;14.35;;;3.90;99.90;;;;;;6430367;22;20313;-79
2024/04/27 02:58:16;;;;;;;27.15;15.52;;;3.90;99.90;;;;;;6473717;22;20333;-79
2024/04/27 03:00:42;;;;;;;23.23;15.00;;;3.90;99.90;;;;;;6473878;22;20020;-80
2024/04/27 03:03:07;;;;;;;28.13;14.82;;;4.00;99.90;;;;;;6473604;22;20021;-80
2024/04/27 03:05:33;;;;;;;24.48;15.70;;;4.00;99.90;;;;;;6473984;22;20368;-80
2024/04/27 03:07:59;;;;;;;23.92;13.60;;;4.00;99.90;;;;;;6430321;22;20001;-80
2024/04/27 03:10:25;;;;;;;30.13;16.08;;;4.00;99.90;;;;;;6473892;22;20140;-80
2024/04/27 03:12:55;;;;;;;21.15;12.25;;;4.00;99.90;;;;;;6473939;22;20017;-80
2024/04/27 03:15:21;;;;;;;21.90;12.75;;;4.00;99.90;;;;;;6474352;22;20012;-80
2024/04/27 03:17:47;;;;;;;20.08;13.00;;;4.00;99.90;;;;;;6429548;22;20325;-80
2024/04/27 03:20:13;;;;;;;14.38;9.20;;;4.10;99.90;;;;;;6474939;22;20009;-80
2024/04/27 03:22:42;;;;;;;15.60;9.93;;;4.10;99.90;;;;;;6429735;22;20311;-80
2024/04/27 03:25:12;;;;;;;18.45;11.55;;;4.20;99.90;;;;;;6473796;22;20084;-80
2024/04/27 03:27:38;;;;;;;19.60;11.82;;;4.20;99.90;;;;;;6473777;22;20009;-79
2024/04/27 03:30:04;;;;;;;23.13;11.90;;;4.20;99.90;;;;;;6474126;22;20010;-79
2024/04/27 03:32:30;;;;;;;17.30;10.75;;;4.20;99.90;;;;;;6473501;22;20017;-79
2024/04/27 03:34:56;;;;;;;21.52;11.35;;;4.30;99.90;;;;;;6430331;22;20432;-79
2024/04/27 03:37:21;;;;;;;16.98;10.73;;;4.30;99.90;;;;;;6473164;22;20001;-80
2024/04/27 03:39:47;;;;;;;18.05;11.52;;;4.40;99.90;;;;;;6379849;22;20325;-80
2024/04/27 03:42:13;;;;;;;18.98;12.00;;;4.40;99.90;;;;;;6379725;22;20020;-79
2024/04/27 03:44:39;;;;;;;23.83;14.10;;;4.40;99.90;;;;;;6379616;22;20413;-79
2024/04/27 03:47:05;;;;;;;26.35;13.65;;;4.40;99.90;;;;;;6423743;22;20301;-79
2024/04/27 03:49:31;;;;;;;28.20;15.77;;;4.40;99.90;;;;;;6423530;22;20003;-79
2024/04/27 03:51:58;;;;;;;27.45;15.90;;;4.40;99.90;;;;;;6379191;22;20085;-81
2024/04/27 03:54:23;;;;;;;24.42;14.63;;;4.50;99.90;;;;;;6379591;22;20081;-79
2024/04/27 03:56:50;;;;;;;13.60;9.30;;;4.50;99.90;;;;;;6423220;22;20018;-78
2024/04/27 03:59:17;;;;;;;22.23;13.20;;;4.60;99.90;;;;;;6423663;22;20297;-79
2024/04/27 04:01:44;;;;;;;18.52;12.00;;;4.60;99.90;;;;;;6423262;22;20020;-78
2024/04/27 04:04:10;;;;;;;21.45;11.68;;;4.80;99.90;;;;;;6423224;22;20080;-80
2024/04/27 04:06:36;;;;;;;28.00;15.50;;;4.80;99.90;;;;;;6379538;22;20014;-79
2024/04/27 04:09:02;;;;;;;18.20;12.18;;;4.90;99.90;;;;;;6423943;22;20458;-79
2024/04/27 04:11:28;;;;;;;36.10;16.83;;;5.00;99.90;;;;;;6425228;22;19995;-80
2024/04/27 04:13:54;;;;;;;43.20;20.30;;;5.20;99.90;;;;;;6425720;22;20031;-79
2024/04/27 04:16:21;;;;;;;100.72;38.55;;;5.30;99.90;;;;;;6424981;22;20007;-79
2024/04/27 04:18:47;;;;;;;91.38;35.53;;;5.40;99.90;;;;;;6381140;22;20085;-81
2024/04/27 04:21:13;;;;;;;72.30;26.60;;;5.50;99.90;;;;;;6424908;22;20014;-81
2024/04/27 04:23:38;;;;;;;57.60;24.40;;;5.50;99.90;;;;;;6425056;22;20010;-81
2024/04/27 04:26:05;;;;;;;52.15;20.30;;;5.60;99.90;;;;;;6425827;22;20007;-81
2024/04/27 04:28:31;;;;;;;51.92;22.35;;;5.70;99.90;;;;;;6424942;22;20018;-81
2024/04/27 04:30:57;;;;;;;63.03;23.77;;;5.80;99.90;;;;;;6424791;22;20011;-83
2024/04/27 04:33:23;;;;;;;68.38;28.40;;;5.90;99.90;;;;;;6424735;22;20022;-83
2024/04/27 04:35:49;;;;;;;92.75;43.67;;;6.00;99.90;;;;;;6424902;22;20010;-82
2024/04/27 04:38:14;;;;;;;36.13;16.85;;;6.10;99.90;;;;;;6443651;22;20456;-82
2024/04/27 04:40:40;;;;;;;52.35;21.77;;;6.10;99.90;;;;;;6475100;22;20025;-80
2024/04/27 04:43:06;;;;;;;66.57;26.00;;;6.20;99.90;;;;;;6431137;22;20021;-80
2024/04/27 04:45:33;;;;;;;28.77;13.82;;;6.30;99.90;;;;;;6475480;22;20020;-80
2024/04/27 04:47:59;;;;;;;25.00;12.05;;;6.30;99.90;;;;;;6475017;22;20084;-80
2024/04/27 04:50:25;;;;;;;75.88;28.90;;;6.40;99.90;;;;;;6475445;22;20010;-80
2024/04/27 04:52:50;;;;;;;86.97;33.08;;;6.40;99.90;;;;;;6431268;22;20002;-81
2024/04/27 04:55:16;;;;;;;51.63;19.45;;;6.40;99.90;;;;;;6475379;22;20297;-80
2024/04/27 04:57:42;;;;;;;73.60;26.45;;;6.50;99.90;;;;;;6430643;22;20006;-80
2024/04/27 05:00:09;;;;;;;18.30;9.90;;;6.50;99.90;;;;;;6475006;22;20006;-80
2024/04/27 05:02:35;;;;;;;25.13;10.75;;;6.60;99.90;;;;;;6474350;22;20424;-80
2024/04/27 05:05:02;;;;;;;24.63;11.98;;;6.60;99.90;;;;;;6431928;22;20004;-80
2024/04/27 05:07:27;;;;;;;13.77;8.55;;;6.70;99.90;;;;;;6430146;22;20083;-81
2024/04/27 05:09:53;;;;;;;15.85;8.35;;;6.70;99.90;;;;;;6475141;22;20005;-80
2024/04/27 05:12:19;;;;;;;22.23;11.90;;;6.80;99.90;;;;;;6475284;22;20033;-81
2024/04/27 05:14:44;;;;;;;27.63;16.23;;;6.80;99.90;;;;;;6430414;22;20304;-80
2024/04/27 05:17:10;;;;;;;14.82;10.45;;;6.90;99.90;;;;;;6475444;22;19994;-81
2024/04/27 05:19:36;;;;;;;18.23;10.90;;;7.00;99.90;;;;;;6475157;22;20017;-81
2024/04/27 05:22:02;;;;;;;13.20;9.60;;;7.10;99.90;;;;;;6474979;22;20010;-81
2024/04/27 05:24:27;;;;;;;12.07;8.48;;;7.20;99.90;;;;;;6474833;22;20075;-80
2024/04/27 05:26:53;;;;;;;17.92;10.25;;;7.30;99.90;;;;;;6430498;22;20006;-80
2024/04/27 05:29:19;;;;;;;9.75;7.13;;;7.40;99.90;;;;;;6475057;22;20009;-80
2024/04/27 05:31:44;;;;;;;10.20;6.95;;;7.50;99.90;;;;;;6474435;22;20017;-79
2024/04/27 05:34:10;;;;;;;9.52;6.50;;;7.60;99.90;;;;;;6430882;22;20002;-80
2024/04/27 05:36:36;;;;;;;13.15;8.07;;;7.70;99.90;;;;;;6474983;22;20005;-80
2024/04/27 05:39:02;;;;;;;14.10;8.13;;;7.90;99.90;;;;;;6474419;22;20010;-80
2024/04/27 05:41:27;;;;;;;16.35;8.85;;;8.00;99.90;;;;;;6474794;22;20315;-80
2024/04/27 05:43:53;;;;;;;18.38;10.20;;;8.10;99.90;;;;;;6430875;22;20016;-82
2024/04/27 05:46:19;;;;;;;23.27;13.02;;;8.20;99.90;;;;;;6473724;22;20010;-80
2024/04/27 05:48:44;;;;;;;23.15;13.30;;;8.40;99.90;;;;;;6474795;22;20022;-81
2024/04/27 05:51:10;;;;;;;24.17;12.82;;;8.50;99.90;;;;;;6474215;22;20006;-80
2024/04/27 05:53:36;;;;;;;18.77;12.02;;;8.60;99.90;;;;;;6474300;22;20455;-81
2024/04/27 05:56:01;;;;;;;14.10;8.73;;;8.70;99.90;;;;;;6429911;22;20014;-80
2024/04/27 05:58:27;;;;;;;14.25;9.20;;;8.80;99.90;;;;;;6430248;22;20006;-80
2024/04/27 06:00:53;;;;;;;14.07;8.93;;;8.90;99.90;;;;;;6474315;22;20006;-81
2024/04/27 06:03:18;;;;;;;10.75;7.82;;;9.10;99.90;;;;;;6430283;22;20054;-82
2024/04/27 06:05:44;;;;;;;12.38;8.57;;;9.20;98.90;;;;;;6428596;22;20006;-82
2024/04/27 06:08:13;;;;;;;12.40;7.07;;;9.30;94.80;;;;;;6430965;22;20140;-80
2024/04/27 06:10:39;;;;;;;6.95;5.50;;;9.50;89.30;;;;;;6474774;22;20016;-78
2024/04/27 06:13:11;;;;;;;6.97;5.30;;;9.70;83.70;;;;;;6430284;22;20002;-79
2024/04/27 06:15:37;;;;;;;6.63;4.93;;;9.80;79.10;;;;;;6430029;22;20376;-79
2024/04/27 06:18:03;;;;;;;7.55;4.97;;;10.00;76.60;;;;;;6463386;22;20010;-80
2024/04/27 06:20:28;;;;;;;7.07;5.10;;;10.20;74.70;;;;;;6472607;22;19998;-78
2024/04/27 06:22:54;;;;;;;7.60;4.40;;;10.40;73.80;;;;;;6471713;22;20308;-82
2024/04/27 06:25:20;;;;;;;7.60;5.18;;;10.50;73.10;;;;;;6472392;22;20432;-80
2024/04/27 06:27:45;;;;;;;6.65;3.90;;;10.70;73.70;;;;;;6472185;22;20285;-81
2024/04/27 06:30:13;;;;;;;6.82;4.25;;;10.80;72.10;;;;;;6473963;22;20042;-81
2024/04/27 06:32:38;;;;;;;4.40;3.60;;;11.00;71.60;;;;;;6473133;22;20002;-80
2024/04/27 06:35:04;;;;;;;4.95;3.90;;;11.10;71.60;;;;;;6474950;22;20013;-82
2024/04/27 06:37:30;;;;;;;6.13;3.88;;;11.30;70.90;;;;;;6473930;22;20368;-82
2024/04/27 06:39:56;;;;;;;4.03;3.65;;;11.40;71.60;;;;;;6430401;22;20010;-80
2024/04/27 06:42:22;;;;;;;4.95;4.03;;;11.50;70.80;;;;;;6474678;22;20006;-80
2024/04/27 06:44:47;;;;;;;4.50;3.55;;;11.60;70.40;;;;;;6474358;22;20028;-82
2024/04/27 06:47:14;;;;;;;4.80;3.65;;;11.70;69.70;;;;;;6430561;22;20008;-82
2024/04/27 06:49:40;;;;;;;7.28;3.60;;;11.90;69.70;;;;;;6474073;22;20463;-80
2024/04/27 06:52:06;;;;;;;5.80;4.88;;;12.10;69.30;;;;;;6429298;22;20024;-80
2024/04/27 06:54:32;;;;;;;4.45;3.67;;;12.20;68.00;;;;;;6473841;22;20006;-80
2024/04/27 06:56:57;;;;;;;4.90;3.83;;;12.20;67.00;;;;;;6429711;22;20316;-86
2024/04/27 06:59:23;;;;;;;4.07;3.50;;;12.40;66.20;;;;;;6464122;22;19998;-83
2024/04/27 07:01:49;;;;;;;4.80;3.78;;;12.50;66.20;;;;;;6473175;22;19998;-84
2024/04/27 07:04:15;;;;;;;4.60;2.97;;;12.70;64.90;;;;;;6473764;22;20305;-82
2024/04/27 07:06:41;;;;;;;5.85;3.65;;;12.90;64.80;;;;;;6474192;22;20010;-85
2024/04/27 07:09:07;;;;;;;3.45;3.08;;;13.10;64.80;;;;;;6430599;22;20013;-85
2024/04/27 07:11:33;;;;;;;3.72;3.35;;;13.20;63.10;;;;;;6472741;22;19998;-84
2024/04/27 07:14:00;;;;;;;3.55;3.13;;;13.30;64.00;;;;;;6473192;22;20076;-83
2024/04/27 07:16:29;;;;;;;3.55;2.80;;;13.50;64.00;;;;;;6429922;22;20009;-83
2024/04/27 07:18:55;;;;;;;4.43;3.03;;;13.70;63.10;;;;;;6472896;22;20320;-85
2024/04/27 07:21:24;;;;;;;6.43;3.45;;;13.80;61.90;;;;;;6428395;22;20017;-83
2024/04/27 07:23:50;;;;;;;6.55;3.22;;;13.80;62.60;;;;;;6473144;22;20024;-83
2024/04/27 07:26:16;;;;;;;3.95;2.88;;;13.80;61.50;;;;;;6473301;22;19994;-82
2024/04/27 07:28:42;;;;;;;2.63;2.40;;;13.80;60.70;;;;;;6473209;22;20027;-83
2024/04/27 07:31:07;;;;;;;3.38;3.08;;;13.80;60.50;;;;;;6472821;22;20013;-83
2024/04/27 07:33:34;;;;;;;3.20;2.60;;;14.00;60.80;;;;;;6428516;22;20009;-84
2024/04/27 07:35:59;;;;;;;2.83;2.63;;;14.40;61.30;;;;;;6429143;22;20016;-81
2024/04/27 07:38:25;;;;;;;2.97;2.67;;;14.70;59.70;;;;;;6471679;22;19997;-82
2024/04/27 07:40:51;;;;;;;2.42;2.22;;;15.00;59.40;;;;;;6471323;22;19998;-83
2024/04/27 07:43:16;;;;;;;3.10;2.03;;;15.20;59.00;;;;;;6430647;22;20013;-82
2024/04/27 07:45:42;;;;;;;4.78;2.40;;;15.30;58.00;;;;;;6475825;22;20084;-82
2024/04/27 07:48:10;;;;;;;2.65;2.00;;;15.40;57.80;;;;;;6474115;22;20014;-80
2024/04/27 07:50:36;;;;;;;3.33;2.28;;;15.60;57.70;;;;;;6475269;22;20017;-80
2024/04/27 07:53:03;;;;;;;2.47;2.28;;;15.60;57.20;;;;;;6476454;22;20002;-81
2024/04/27 07:55:29;;;;;;;3.60;2.45;;;15.70;57.50;;;;;;6431141;22;20491;-81
2024/04/27 07:57:55;;;;;;;2.92;2.00;;;16.00;57.10;;;;;;6431097;22;20013;-80
2024/04/27 08:00:21;;;;;;;2.13;1.83;;;16.20;57.40;;;;;;6474776;22;20006;-81
2024/04/27 08:02:47;;;;;;;2.35;2.08;;;16.40;56.40;;;;;;6430619;22;20009;-81
2024/04/27 08:05:13;;;;;;;1.92;1.75;;;16.10;55.10;;;;;;6475554;22;20371;-82
2024/04/27 08:07:40;;;;;;;2.17;1.95;;;16.20;55.20;;;;;;6475725;22;20010;-79
2024/04/27 08:10:06;;;;;;;3.45;1.88;;;16.30;54.90;;;;;;6475622;22;20420;-81
2024/04/27 08:12:32;;;;;;;1.67;1.58;;;16.20;54.10;;;;;;6475890;22;20495;-80
2024/04/27 08:15:01;;;;;;;1.80;1.42;;;16.20;55.00;;;;;;6429660;22;20020;-81
2024/04/27 08:17:27;;;;;;;2.00;1.58;;;16.30;55.60;;;;;;6474941;22;20425;-80
2024/04/27 08:19:52;;;;;;;2.22;1.70;;;16.40;54.50;;;;;;6474300;22;20069;-81
2024/04/27 08:22:18;;;;;;;1.92;1.67;;;16.50;54.80;;;;;;6475081;22;20017;-81
2024/04/27 08:24:44;;;;;;;1.73;1.63;;;16.70;54.80;;;;;;6430571;22;20006;-81
2024/04/27 08:27:10;;;;;;;2.65;1.58;;;16.80;54.30;;;;;;6430473;22;20304;-79
2024/04/27 08:29:35;;;;;;;3.83;2.20;;;16.80;53.60;;;;;;6474679;22;20022;-80
2024/04/27 08:32:01;;;;;;;1.52;1.42;;;16.90;54.10;;;;;;6430778;22;20001;-81
2024/04/27 08:34:27;;;;;;;1.73;1.63;;;17.00;53.90;;;;;;6430775;22;20037;-79
2024/04/27 08:36:52;;;;;;;2.00;1.80;;;17.10;53.30;;;;;;6431403;22;20006;-81
2024/04/27 08:39:18;;;;;;;2.75;1.98;;;17.30;53.10;;;;;;6431023;22;20424;-80
2024/04/27 08:41:45;;;;;;;1.65;1.55;;;17.30;52.90;;;;;;6475394;22;20009;-80
2024/04/27 08:44:13;;;;;;;2.88;1.98;;;17.20;52.60;;;;;;6474137;22;19998;-82
2024/04/27 08:46:39;;;;;;;2.05;1.90;;;17.30;52.60;;;;;;6475081;22;20006;-81
2024/04/27 08:49:05;;;;;;;4.03;1.80;;;17.40;52.80;;;;;;6475524;22;20059;-80
2024/04/27 08:51:32;;;;;;;1.83;1.73;;;17.20;52.00;;;;;;6431401;22;20010;-80
2024/04/27 08:54:01;;;;;;;2.03;1.83;;;17.00;52.80;;;;;;6474541;22;20006;-81
2024/04/27 08:56:36;;;;;;;4.25;3.40;;;17.20;52.90;;;;;;6474669;22;20014;-81
2024/04/27 08:59:02;;;;;;;5.70;3.13;;;17.30;53.10;;;;;;6475990;22;20001;-81
2024/04/27 09:01:28;;;;;;;2.60;2.40;;;17.40;53.30;;;;;;6474866;22;20297;-81
2024/04/27 09:03:53;;;;;;;2.53;2.30;;;17.40;52.70;;;;;;6475598;22;20005;-80
2024/04/27 09:06:19;;;;;;;2.75;2.35;;;17.30;52.00;;;;;;6474477;22;20021;-81
2024/04/27 09:08:55;;;;;;;5.45;2.28;;;17.20;52.60;;;;;;6430889;22;20389;-80
2024/04/27 09:11:22;;;;;;;2.50;2.30;;;17.20;52.00;;;;;;6475948;22;20009;-81
2024/04/27 09:13:48;;;;;;;2.40;2.20;;;17.20;52.20;;;;;;6475546;22;20009;-81
2024/04/27 09:16:20;;;;;;;2.58;2.08;;;17.20;52.00;;;;;;6474985;22;20012;-82
2024/04/27 09:18:52;;;;;;;;;;;17.20;52.60;;;;;;6475646;22;20065;-81
2024/04/27 09:21:19;;;;;;;2.60;2.07;;;17.50;52.30;;;;;;6474885;22;19922;-81
2024/04/27 09:23:45;;;;;;;3.30;2.15;;;17.90;53.90;;;;;;6475002;22;20237;-81
2024/04/27 09:26:10;;;;;;;2.13;1.80;;;17.90;52.20;;;;;;6475648;22;19993;-81
2024/04/27 09:28:47;;;;;;;2.13;1.95;;;17.90;52.00;;;;;;6474896;22;20316;-80
2024/04/27 09:31:13;;;;;;;2.30;1.67;;;17.50;50.40;;;;;;6475057;22;20009;-81
2024/04/27 09:33:39;;;;;;;3.58;1.80;;;17.30;51.00;;;;;;6474566;22;20017;-80
2024/04/27 09:36:08;;;;;;;2.10;2.00;;;17.20;51.20;;;;;;6473765;22;20081;-81
2024/04/27 09:38:44;;;;;;;1.67;1.55;;;17.10;51.50;;;;;;6473937;22;20005;-79
2024/04/27 09:41:11;;;;;;;2.42;2.10;;;17.30;52.20;;;;;;6475913;22;19998;-80
2024/04/27 09:43:55;;;;;;;2.47;1.80;;;17.30;51.50;;;;;;6430527;22;20009;-80
2024/04/27 09:46:46;;;;;;;1.88;1.67;;;17.50;51.80;;;;;;6474747;22;20017;-81
2024/04/27 09:50:03;;;;;;;2.80;1.70;;;17.50;50.90;;;;;;6474995;22;20012;-81
2024/04/27 09:52:32;;;;;;;5.45;2.55;;;17.40;50.70;;;;;;6459033;22;20024;-81
2024/04/27 09:54:59;;;;;;;3.78;2.00;;;17.20;51.20;;;;;;6474148;22;20021;-81
2024/04/27 09:57:25;;;;;;;2.22;1.80;;;17.30;52.10;;;;;;6430058;22;20017;-80
2024/04/27 09:59:51;;;;;;;5.28;4.78;;;17.60;51.30;;;;;;6430283;22;20076;-80
2024/04/27 10:02:18;;;;;;;2.92;2.63;;;17.80;50.70;;;;;;6475346;22;20408;-81
2024/04/27 10:04:44;;;;;;;3.53;2.30;;;18.10;49.90;;;;;;6474056;22;20006;-81
2024/04/27 10:07:09;;;;;;;3.72;3.35;;;18.10;49.80;;;;;;6473659;22;20019;-81
2024/04/27 10:09:36;;;;;;;2.65;2.38;;;18.20;49.70;;;;;;6474694;22;20372;-81
2024/04/27 10:12:03;;;;;;;9.90;6.45;;;18.20;49.30;;;;;;6474583;22;20002;-80
2024/04/27 10:14:29;;;;;;;9.35;5.97;;;18.20;49.20;;;;;;6430385;22;20030;-80
2024/04/27 10:17:13;;;;;;;3.65;2.58;;;18.30;50.00;;;;;;6475398;22;19994;-80
2024/04/27 10:19:50;;;;;;;4.50;2.00;;;18.50;50.10;;;;;;6472734;22;20045;-81
2024/04/27 10:22:28;;;;;;;2.58;1.92;;;18.80;50.10;;;;;;6472637;22;20038;-81
2024/04/27 10:25:36;;;;;;;3.90;2.63;;;19.10;49.90;;;;;;6429079;22;20005;-84
2024/04/27 10:28:02;;;;;;;1.85;1.75;;;19.10;48.10;;;;;;6348998;22;20079;-84
2024/04/27 10:30:31;;;;;;;4.25;2.05;;;18.90;47.90;;;;;;6429893;22;20021;-83
2024/04/27 10:33:00;;;;;;;2.05;1.83;;;18.90;48.70;;;;;;6474036;22;20010;-83
2024/04/27 10:35:26;;;;;;;11.45;6.28;;;18.90;48.60;;;;;;6473891;22;20107;-79
2024/04/27 10:37:55;;;;;;;5.75;2.92;;;18.80;48.70;;;;;;6469548;22;20002;-79
2024/04/27 10:40:22;;;;;;;1.67;1.58;;;18.80;48.70;;;;;;6428416;22;20495;-79
2024/04/27 10:42:48;;;;;;;4.22;2.05;;;19.20;48.10;;;;;;6470165;22;20002;-81
2024/04/27 10:45:14;;;;;;;4.30;2.92;;;19.10;48.70;;;;;;6426531;22;20001;-85
2024/04/27 10:47:40;;;;;;;19.38;9.85;;;19.10;48.10;;;;;;6470610;22;20116;-80
2024/04/27 10:50:08;;;;;;;4.13;2.60;;;19.10;47.20;;;;;;6427627;22;20309;-79
2024/04/27 10:52:35;;;;;;;2.38;2.10;;;19.10;47.80;;;;;;6471875;22;20009;-79
2024/04/27 10:55:00;;;;;;;3.70;2.08;;;19.30;47.60;;;;;;6471480;22;20072;-78
2024/04/27 10:57:27;;;;;;;4.97;2.78;;;19.20;47.70;;;;;;6471123;22;20017;-80
2024/04/27 10:59:54;;;;;;;11.70;5.80;;;19.10;47.40;;;;;;6427005;22;20881;-81
2024/04/27 11:02:21;;;;;;;26.55;14.82;;;19.00;47.80;;;;;;6429167;22;20034;-81
2024/04/27 11:04:47;;;;;;;5.07;4.57;;;18.80;47.70;;;;;;6425918;22;20013;-81
2024/04/27 11:07:13;;;;;;;8.10;5.90;;;18.60;47.70;;;;;;6471290;22;20017;-83
2024/04/27 11:09:39;;;;;;;10.75;3.78;;;18.60;48.00;;;;;;6470513;22;20005;-81
2024/04/27 11:12:05;;;;;;;4.13;2.90;;;18.70;49.40;;;;;;6470737;22;20055;-82
2024/04/27 11:14:31;;;;;;;17.58;10.80;;;18.60;49.90;;;;;;6471422;22;20073;-81
2024/04/27 11:17:01;;;;;;;6.25;3.40;;;18.70;49.40;;;;;;6471671;22;19998;-84
2024/04/27 11:19:28;;;;;;;4.60;2.40;;;18.80;49.50;;;;;;6472875;22;20041;-83
2024/04/27 11:21:58;;;;;;;6.60;3.08;;;18.80;48.70;;;;;;6473767;22;20424;-81
2024/04/27 11:24:24;;;;;;;12.13;7.95;;;19.10;48.90;;;;;;6470531;22;20002;-83
2024/04/27 11:26:50;;;;;;;3.75;2.80;;;19.30;49.00;;;;;;6429205;22;20305;-81
2024/04/27 11:29:15;;;;;;;14.90;5.47;;;19.40;48.00;;;;;;6473999;22;20008;-85
2024/04/27 11:31:41;;;;;;;4.22;2.17;;;19.70;48.60;;;;;;6474160;22;20016;-86
2024/04/27 11:34:06;;;;;;;5.65;2.75;;;19.70;47.70;;;;;;6473704;22;20009;-81
2024/04/27 11:36:32;;;;;;;3.25;2.22;;;19.50;47.20;;;;;;6473903;22;20388;-81
2024/04/27 11:38:58;;;;;;;7.75;3.67;;;19.30;47.00;;;;;;6473158;22;20382;-81
2024/04/27 11:41:23;;;;;;;3.15;2.33;;;18.90;46.20;;;;;;6429111;22;19998;-81
2024/04/27 11:43:49;;;;;;;4.88;3.05;;;18.80;47.60;;;;;;6429591;22;20009;-81
2024/04/27 11:46:15;;;;;;;2.65;2.20;;;18.80;47.90;;;;;;6428238;22;20016;-81
2024/04/27 11:48:40;;;;;;;3.25;2.15;;;18.80;48.60;;;;;;6473443;22;20018;-81
2024/04/27 11:51:06;;;;;;;3.22;2.50;;;18.80;48.40;;;;;;6473491;22;20021;-86
2024/04/27 11:53:32;;;;;;;11.68;6.85;;;18.70;48.60;;;;;;6473741;22;20006;-84
2024/04/27 11:55:57;;;;;;;5.88;3.78;;;18.80;49.10;;;;;;6474123;22;20002;-85
2024/04/27 11:58:24;;;;;;;6.20;2.83;;;18.80;48.70;;;;;;6429494;22;20304;-85
2024/04/27 12:00:49;;;;;;;3.80;2.40;;;18.80;48.70;;;;;;6473661;22;20041;-83
2024/04/27 12:03:15;;;;;;;2.70;2.15;;;18.80;48.20;;;;;;6472875;22;20006;-84
2024/04/27 12:05:41;;;;;;;3.97;2.75;;;18.90;48.20;;;;;;6473431;22;21082;-85
2024/04/27 12:08:07;;;;;;;2.20;2.00;;;18.90;48.30;;;;;;6474668;22;20500;-85
2024/04/27 12:10:32;;;;;;;2.05;1.90;;;19.30;49.30;;;;;;6473840;22;20328;-85
2024/04/27 12:12:58;;;;;;;3.22;2.92;;;19.20;48.50;;;;;;6473720;22;20005;-85
2024/04/27 12:15:26;;;;;;;2.90;2.70;;;19.10;47.80;;;;;;6429597;22;20006;-85
2024/04/27 12:17:52;;;;;;;2.55;1.98;;;19.30;48.40;;;;;;6428511;22;20006;-85
2024/04/27 12:20:17;;;;;;;2.08;1.88;;;19.50;47.90;;;;;;6474287;22;20431;-85
2024/04/27 12:22:43;;;;;;;3.13;2.35;;;19.60;47.50;;;;;;6473986;22;20016;-86
2024/04/27 12:25:09;;;;;;;2.50;2.30;;;19.70;47.80;;;;;;6473151;22;20002;-85
2024/04/27 12:27:34;;;;;;;3.63;1.98;;;19.70;47.10;;;;;;6473788;22;20421;-84
2024/04/27 12:30:01;;;;;;;3.78;2.30;;;19.70;47.40;;;;;;6474433;22;20006;-81
2024/04/27 12:32:26;;;;;;;2.17;2.08;;;19.50;47.20;;;;;;6430966;22;20002;-81
2024/04/27 12:34:52;;;;;;;2.28;2.00;;;19.30;47.20;;;;;;6459444;22;20307;-79
2024/04/27 12:37:18;;;;;;;2.08;1.90;;;19.10;46.90;;;;;;6474696;22;20040;-81
2024/04/27 12:39:43;;;;;;;2.83;2.20;;;19.30;46.10;;;;;;6477987;22;20408;-82
2024/04/27 12:42:09;;;;;;;2.28;2.10;;;19.30;46.80;;;;;;6476252;22;20020;-81
2024/04/27 12:44:35;;;;;;;2.50;2.30;;;19.30;47.20;;;;;;6427129;22;20002;-79